createdAt,value
2018-08-24T00:00:18.383Z,90.74
2018-08-24T00:02:47.045Z,90.15
2018-08-24T00:05:15.719Z,90.42
2018-08-24T00:07:44.402Z,90.78
2018-08-24T00:10:13.039Z,91.87
2018-08-24T00:12:41.698Z,92.26
2018-08-24T00:15:10.328Z,92.19
2018-08-24T00:17:39.028Z,92.11
2018-08-24T00:20:07.695Z,91.42
2018-08-24T00:22:36.371Z,90.97
2018-08-24T00:25:05.135Z,90.87
2018-08-24T00:27:33.781Z,91.07
2018-08-24T00:30:02.423Z,91.68
2018-08-24T00:32:31.095Z,91.84
2018-08-24T00:34:59.755Z,92.46
2018-08-24T00:37:28.409Z,92.44
2018-08-24T00:39:57.063Z,92.11
2018-08-24T00:42:25.725Z,92.14
2018-08-24T00:44:54.376Z,92.06
2018-08-24T00:47:23.036Z,91.85
2018-08-24T00:49:51.678Z,91.25
2018-08-24T00:52:20.580Z,90.97
2018-08-24T00:54:49.263Z,90.49
2018-08-24T00:57:17.918Z,90.54
2018-08-24T00:59:46.588Z,90.13
2018-08-24T01:02:15.265Z,89.90
2018-08-24T01:04:43.914Z,90.59
2018-08-24T01:07:13.827Z,91.15
2018-08-24T01:09:42.934Z,91.54
2018-08-24T01:12:13.706Z,92.02
2018-08-24T01:14:43.712Z,92.48
2018-08-24T01:17:17.571Z,92.65
2018-08-24T01:19:46.733Z,92.95
2018-08-24T01:22:15.762Z,92.88
2018-08-24T01:24:44.415Z,93.66
2018-08-24T01:27:13.038Z,94.13
2018-08-24T01:29:42.925Z,94.38
2018-08-24T01:32:11.606Z,94.60
2018-08-24T01:34:40.258Z,94.41
2018-08-24T01:37:08.902Z,94.30
2018-08-24T01:39:37.562Z,94.14
2018-08-24T01:42:06.228Z,93.37
2018-08-24T01:44:34.876Z,92.40
2018-08-24T01:47:03.548Z,91.97
2018-08-24T01:49:32.200Z,92.38
2018-08-24T01:52:00.836Z,92.34
2018-08-24T01:54:29.487Z,92.24
2018-08-24T01:56:58.177Z,92.71
2018-08-24T01:59:26.813Z,93.08
2018-08-24T02:01:55.452Z,93.39
2018-08-24T02:04:24.104Z,92.93
2018-08-24T02:06:52.737Z,92.73
2018-08-24T02:09:23.033Z,92.62
2018-08-24T02:11:52.088Z,92.52
2018-08-24T02:14:26.209Z,93.04
2018-08-24T02:16:54.811Z,92.99
2018-08-24T02:19:28.708Z,92.83
2018-08-24T02:22:02.590Z,92.21
2018-08-24T02:24:31.263Z,92.07
2018-08-24T02:26:59.896Z,91.87
2018-08-24T02:29:28.556Z,92.57
2018-08-24T02:31:57.207Z,92.18
2018-08-24T02:34:25.863Z,91.75
2018-08-24T02:36:54.498Z,91.46
2018-08-24T02:39:23.168Z,91.16
2018-08-24T02:41:51.825Z,91.62
2018-08-24T02:44:20.484Z,91.66
2018-08-24T02:46:49.125Z,91.61
2018-08-24T02:49:17.794Z,91.30
2018-08-24T02:51:46.460Z,91.19
2018-08-24T02:54:15.124Z,90.95
2018-08-24T02:56:43.885Z,91.01
2018-08-24T02:59:12.595Z,90.82
2018-08-24T03:01:41.234Z,90.76
2018-08-24T03:04:09.908Z,90.61
2018-08-24T03:06:38.543Z,90.71
2018-08-24T03:09:09.827Z,90.81
2018-08-24T03:11:38.470Z,90.76
2018-08-24T03:14:07.178Z,90.47
2018-08-24T03:16:35.877Z,90.46
2018-08-24T03:19:04.588Z,90.71
2018-08-24T03:21:33.245Z,91.12
2018-08-24T03:24:01.905Z,91.37
2018-08-24T03:26:30.550Z,91.32
2018-08-24T03:28:59.221Z,91.51
2018-08-24T03:31:27.857Z,91.28
2018-08-24T03:33:56.496Z,91.05
2018-08-24T03:36:25.151Z,90.97
2018-08-24T03:38:53.782Z,90.89
2018-08-24T03:41:22.440Z,90.95
2018-08-24T03:43:51.074Z,91.15
2018-08-24T03:46:19.731Z,90.87
2018-08-24T03:48:48.389Z,90.90
2018-08-24T03:51:17.052Z,90.51
2018-08-24T03:53:45.693Z,90.39
2018-08-24T03:56:14.361Z,91.21
2018-08-24T03:58:43.007Z,91.52
2018-08-24T04:01:11.688Z,92.09
2018-08-24T04:03:40.343Z,91.87
2018-08-24T04:06:09.001Z,91.83
2018-08-24T04:08:37.654Z,91.57
2018-08-24T04:11:06.483Z,91.11
2018-08-24T04:13:35.128Z,91.16
2018-08-24T04:16:03.799Z,91.08
2018-08-24T04:18:32.458Z,91.09
2018-08-24T04:21:01.150Z,90.92
2018-08-24T04:23:29.784Z,90.84
2018-08-24T04:25:58.482Z,90.82
2018-08-24T04:28:27.127Z,90.85
2018-08-24T04:30:55.795Z,90.29
2018-08-24T04:33:24.436Z,90.19
2018-08-24T04:35:53.090Z,90.17
2018-08-24T04:38:21.731Z,90.20
2018-08-24T04:40:50.392Z,89.96
2018-08-24T04:43:19.036Z,89.71
2018-08-24T04:45:47.692Z,89.21
2018-08-24T04:48:16.330Z,89.03
2018-08-24T04:50:44.999Z,88.84
2018-08-24T04:53:13.680Z,88.79
2018-08-24T04:55:42.347Z,88.89
2018-08-24T04:58:11.006Z,88.75
2018-08-24T05:00:39.676Z,88.64
2018-08-24T05:03:08.371Z,88.07
2018-08-24T05:05:37.074Z,87.97
2018-08-24T05:08:05.699Z,87.67
2018-08-24T05:10:34.298Z,87.89
2018-08-24T05:13:02.932Z,87.60
2018-08-24T05:15:31.600Z,87.57
2018-08-24T05:18:00.245Z,87.24
2018-08-24T05:20:28.920Z,86.85
2018-08-24T05:22:57.460Z,86.39
2018-08-24T05:25:26.007Z,85.88
2018-08-24T05:27:54.661Z,86.22
2018-08-24T05:30:23.343Z,86.01
2018-08-24T05:32:51.978Z,85.85
2018-08-24T05:35:20.528Z,86.17
2018-08-24T05:37:49.041Z,85.91
2018-08-24T05:40:17.725Z,85.88
2018-08-24T05:42:46.387Z,85.86
2018-08-24T05:45:15.033Z,85.04
2018-08-24T05:47:43.708Z,85.00
2018-08-24T05:50:12.355Z,84.49
2018-08-24T05:52:41.009Z,83.63
2018-08-24T05:55:09.671Z,83.42
2018-08-24T05:57:38.343Z,82.45
2018-08-24T06:00:07.096Z,82.09
2018-08-24T06:02:35.817Z,81.94
2018-08-24T06:05:04.480Z,82.27
2018-08-24T06:07:33.146Z,82.17
2018-08-24T06:10:01.787Z,81.43
2018-08-24T06:12:30.456Z,82.12
2018-08-24T06:14:59.120Z,81.38
2018-08-24T06:17:32.940Z,80.53
2018-08-24T06:20:01.593Z,80.09
2018-08-24T06:22:30.292Z,81.34
2018-08-24T06:24:58.940Z,82.25
2018-08-24T06:27:27.636Z,81.83
2018-08-24T06:29:56.285Z,81.15
2018-08-24T06:32:25.023Z,81.39
2018-08-24T06:34:53.733Z,80.26
2018-08-24T06:37:22.439Z,80.13
2018-08-24T06:39:51.095Z,79.93
2018-08-24T06:42:19.751Z,79.06
2018-08-24T06:44:48.451Z,79.03
2018-08-24T06:47:17.171Z,78.43
2018-08-24T06:49:45.789Z,78.44
2018-08-24T06:52:14.463Z,77.71
2018-08-24T06:54:46.807Z,77.63
2018-08-24T06:57:15.587Z,75.46
2018-08-24T06:59:44.345Z,74.31
2018-08-24T07:02:13.044Z,73.54
2018-08-24T07:04:41.696Z,72.93
2018-08-24T07:07:10.381Z,72.77
2018-08-24T07:09:39.769Z,70.92
2018-08-24T07:12:10.704Z,68.97
2018-08-24T07:14:43.433Z,68.81
2018-08-24T07:17:12.103Z,68.88
2018-08-24T07:19:40.749Z,69.58
2018-08-24T07:22:09.440Z,68.94
2018-08-24T07:24:38.083Z,68.27
2018-08-24T07:27:06.752Z,65.60
2018-08-24T07:29:35.387Z,64.52
2018-08-24T07:32:04.322Z,63.64
2018-08-24T07:34:32.969Z,63.39
2018-08-24T07:37:01.646Z,65.40
2018-08-24T07:39:30.303Z,66.48
2018-08-24T07:41:59.074Z,64.69
2018-08-24T07:44:27.657Z,64.09
2018-08-24T07:46:56.340Z,61.46
2018-08-24T07:49:24.971Z,61.17
2018-08-24T07:51:53.656Z,62.02
2018-08-24T07:54:22.299Z,62.73
2018-08-24T07:56:50.953Z,62.46
2018-08-24T07:59:19.719Z,60.99
2018-08-24T08:01:48.401Z,60.90
2018-08-24T08:04:17.078Z,59.87
2018-08-24T08:06:45.746Z,60.12
2018-08-24T08:09:14.414Z,59.69
2018-08-24T08:11:43.055Z,61.09
2018-08-24T08:14:11.721Z,61.61
2018-08-24T08:16:40.374Z,62.10
2018-08-24T08:19:09.040Z,62.38
2018-08-24T08:21:37.705Z,62.05
2018-08-24T08:24:06.532Z,62.46
2018-08-24T08:26:35.198Z,63.46
2018-08-24T08:29:03.978Z,64.19
2018-08-24T08:31:32.615Z,62.96
2018-08-24T08:34:01.538Z,61.55
2018-08-24T08:36:30.174Z,61.43
2018-08-24T08:38:58.907Z,61.13
2018-08-24T08:41:27.551Z,60.21
2018-08-24T08:43:56.204Z,60.66
2018-08-24T08:46:24.846Z,61.39
2018-08-24T08:48:53.501Z,61.05
2018-08-24T08:51:22.192Z,62.42
2018-08-24T08:53:50.866Z,63.03
2018-08-24T08:56:19.578Z,61.16
2018-08-24T08:58:48.283Z,60.61
2018-08-24T09:01:16.912Z,60.77
2018-08-24T09:03:45.581Z,61.56
2018-08-24T09:06:14.347Z,61.44
2018-08-24T09:08:42.973Z,59.27
2018-08-24T09:11:11.618Z,59.73
2018-08-24T09:13:40.280Z,58.68
2018-08-24T09:16:08.922Z,59.55
2018-08-24T09:18:42.819Z,59.60
2018-08-24T09:21:16.756Z,59.37
2018-08-24T09:23:50.647Z,58.81
2018-08-24T09:27:23.035Z,58.57
2018-08-24T09:29:51.718Z,58.87
2018-08-24T09:32:20.479Z,57.48
2018-08-24T09:34:49.160Z,57.82
2018-08-24T09:37:23.018Z,59.21
2018-08-24T09:39:51.680Z,58.36
2018-08-24T09:42:20.328Z,58.66
2018-08-24T09:44:48.995Z,58.31
2018-08-24T09:47:22.903Z,58.17
2018-08-24T09:49:51.576Z,58.84
2018-08-24T09:52:25.268Z,59.07
2018-08-24T09:54:53.938Z,60.63
2018-08-24T09:57:22.588Z,60.33
2018-08-24T09:59:51.253Z,60.77
2018-08-24T10:02:24.880Z,59.97
2018-08-24T10:04:58.828Z,60.82
2018-08-24T10:07:32.652Z,61.82
2018-08-24T10:10:01.935Z,60.71
2018-08-24T10:12:35.602Z,60.34
2018-08-24T10:15:05.665Z,60.57
2018-08-24T10:17:34.306Z,60.07
2018-08-24T10:20:03.011Z,60.33
2018-08-24T10:22:32.316Z,60.32
2018-08-24T10:25:01.039Z,60.43
2018-08-24T10:27:29.672Z,60.56
2018-08-24T10:29:58.321Z,60.91
2018-08-24T10:32:26.935Z,60.87
2018-08-24T10:34:55.582Z,61.45
2018-08-24T10:37:24.199Z,61.52
2018-08-24T10:39:52.864Z,61.93
2018-08-24T10:42:21.485Z,62.15
2018-08-24T10:44:50.140Z,62.49
2018-08-24T10:47:18.828Z,62.76
2018-08-24T10:49:47.496Z,62.75
2018-08-24T10:52:16.132Z,62.13
2018-08-24T10:54:44.788Z,61.71
2018-08-24T10:57:13.448Z,58.73
2018-08-24T10:59:42.135Z,58.78
2018-08-24T11:02:10.884Z,59.37
2018-08-24T11:04:39.464Z,59.23
2018-08-24T11:07:08.150Z,58.15
2018-08-24T11:09:36.879Z,58.54
2018-08-24T11:12:05.543Z,57.89
2018-08-24T11:14:34.173Z,57.95
2018-08-24T11:17:02.857Z,58.38
2018-08-24T11:19:31.500Z,58.20
2018-08-24T11:22:00.164Z,56.04
2018-08-24T11:24:28.789Z,57.07
2018-08-24T11:26:57.516Z,56.93
2018-08-24T11:29:26.265Z,56.78
2018-08-24T11:31:54.819Z,56.90
2018-08-24T11:34:23.451Z,57.12
2018-08-24T11:36:52.090Z,56.49
2018-08-24T11:39:20.707Z,57.01
2018-08-24T11:41:49.420Z,57.32
2018-08-24T11:44:18.026Z,57.35
2018-08-24T11:46:46.676Z,56.68
2018-08-24T11:49:15.302Z,56.19
2018-08-24T11:51:43.951Z,55.21
2018-08-24T11:54:12.668Z,55.60
2018-08-24T11:56:41.326Z,55.56
2018-08-24T11:59:09.958Z,56.40
2018-08-24T12:01:38.627Z,56.24
2018-08-24T12:04:07.242Z,57.01
2018-08-24T12:06:35.893Z,56.66
2018-08-24T12:09:06.372Z,56.96
2018-08-24T12:11:35.029Z,57.64
2018-08-24T12:14:03.793Z,57.45
2018-08-24T12:16:32.480Z,58.28
2018-08-24T12:19:01.135Z,56.42
2018-08-24T12:21:30.692Z,55.94
2018-08-24T12:23:59.334Z,55.33
2018-08-24T12:26:27.988Z,55.96
2018-08-24T12:28:56.634Z,56.78
2018-08-24T12:31:25.271Z,57.27
2018-08-24T12:33:53.925Z,57.86
2018-08-24T12:36:22.572Z,58.41
2018-08-24T12:38:51.205Z,58.58
2018-08-24T12:41:19.937Z,59.60
2018-08-24T12:43:48.539Z,60.39
2018-08-24T12:46:17.246Z,60.79
2018-08-24T12:48:45.864Z,60.74
2018-08-24T12:51:14.518Z,60.46
2018-08-24T12:53:43.149Z,60.86
2018-08-24T12:56:17.371Z,59.88
2018-08-24T12:58:46.026Z,58.74
2018-08-24T13:01:14.677Z,57.66
2018-08-24T13:03:43.592Z,57.05
2018-08-24T13:06:12.557Z,56.11
2018-08-24T13:08:41.713Z,54.35
2018-08-24T13:11:10.433Z,53.39
2018-08-24T13:13:39.100Z,54.15
2018-08-24T13:16:07.893Z,54.42
2018-08-24T13:18:36.592Z,53.16
2018-08-24T13:21:05.607Z,52.35
2018-08-24T13:23:34.470Z,52.53
2018-08-24T13:26:03.107Z,51.24
2018-08-24T13:28:31.748Z,52.23
2018-08-24T13:31:00.425Z,50.63
2018-08-24T13:33:29.064Z,49.65
2018-08-24T13:35:57.711Z,49.57
2018-08-24T13:38:26.353Z,48.42
2018-08-24T13:40:54.995Z,47.75
2018-08-24T13:43:23.648Z,46.94
2018-08-24T13:45:52.277Z,48.07
2018-08-24T13:48:20.925Z,49.48
2018-08-24T13:50:49.717Z,49.04
2018-08-24T13:53:18.443Z,49.74
2018-08-24T13:55:47.326Z,49.27
2018-08-24T13:58:16.021Z,48.97
2018-08-24T14:00:44.684Z,49.46
2018-08-24T14:03:13.367Z,49.21
2018-08-24T14:05:41.998Z,47.88
2018-08-24T14:08:10.645Z,47.73
2018-08-24T14:10:39.279Z,47.47
2018-08-24T14:13:07.966Z,47.25
2018-08-24T14:15:36.557Z,47.09
2018-08-24T14:18:05.212Z,46.17
2018-08-24T14:20:33.844Z,46.43
2018-08-24T14:23:02.567Z,47.35
2018-08-24T14:25:31.253Z,44.54
2018-08-24T14:27:59.872Z,45.55
2018-08-24T14:30:28.510Z,44.92
2018-08-24T14:32:57.171Z,43.00
2018-08-24T14:35:25.791Z,42.87
2018-08-24T14:37:54.428Z,43.41
2018-08-24T14:40:23.050Z,42.63
2018-08-24T14:42:51.703Z,43.04
2018-08-24T14:45:20.342Z,41.74
2018-08-24T14:47:48.993Z,41.14
2018-08-24T14:50:17.634Z,40.45
2018-08-24T14:52:46.276Z,39.62
2018-08-24T14:55:14.917Z,37.67
2018-08-24T14:57:43.580Z,36.24
2018-08-24T15:00:12.210Z,36.68
2018-08-24T15:02:40.864Z,36.21
2018-08-24T15:05:11.384Z,36.57
2018-08-24T15:07:40.159Z,36.66
2018-08-24T15:10:09.389Z,37.87
2018-08-24T15:12:38.149Z,39.25
2018-08-24T15:15:07.150Z,42.09
2018-08-24T15:17:35.824Z,44.00
2018-08-24T15:20:05.020Z,44.44
2018-08-24T15:22:34.196Z,44.60
2018-08-24T15:25:02.825Z,44.36
2018-08-24T15:27:31.489Z,44.50
2018-08-24T15:30:00.144Z,44.65
2018-08-24T15:32:28.809Z,43.92
2018-08-24T15:34:57.468Z,44.00
2018-08-24T15:37:26.115Z,43.41
2018-08-24T15:39:54.776Z,43.81
2018-08-24T15:42:23.408Z,44.11
2018-08-24T15:44:52.056Z,43.59
2018-08-24T15:47:20.693Z,44.60
2018-08-24T15:49:49.359Z,43.82
2018-08-24T15:52:18.005Z,43.91
2018-08-24T15:54:46.783Z,44.05
2018-08-24T15:57:15.365Z,44.61
2018-08-24T15:59:44.015Z,45.77
2018-08-24T16:02:12.635Z,45.90
2018-08-24T16:04:41.293Z,46.11
2018-08-24T16:07:09.951Z,46.85
2018-08-24T16:09:40.128Z,47.89
2018-08-24T16:12:08.867Z,49.10
2018-08-24T16:14:37.505Z,49.62
2018-08-24T16:17:06.156Z,49.17
2018-08-24T16:19:34.825Z,48.75
2018-08-24T16:22:03.523Z,48.37
2018-08-24T16:24:32.216Z,47.29
2018-08-24T16:27:00.888Z,47.15
2018-08-24T16:29:29.563Z,47.35
2018-08-24T16:31:58.273Z,46.39
2018-08-24T16:34:26.993Z,46.85
2018-08-24T16:36:55.677Z,46.55
2018-08-24T16:39:24.351Z,47.63
2018-08-24T16:41:52.992Z,47.39
2018-08-24T16:44:21.667Z,47.36
2018-08-24T16:46:53.767Z,47.73
2018-08-24T16:49:22.430Z,48.30
2018-08-24T16:51:51.079Z,48.58
2018-08-24T16:54:19.748Z,49.25
2018-08-24T16:56:48.398Z,49.52
2018-08-24T16:59:17.079Z,49.73
2018-08-24T17:01:45.738Z,49.87
2018-08-24T17:04:14.393Z,49.87
2018-08-24T17:06:43.065Z,50.05
2018-08-24T17:09:13.104Z,50.82
2018-08-24T17:11:41.779Z,50.66
2018-08-24T17:14:10.424Z,51.19
2018-08-24T17:16:39.084Z,51.44
2018-08-24T17:19:07.727Z,51.95
2018-08-24T17:21:36.401Z,51.63
2018-08-24T17:24:05.052Z,51.80
2018-08-24T17:26:33.734Z,52.13
2018-08-24T17:29:02.387Z,52.55
2018-08-24T17:31:31.064Z,52.94
2018-08-24T17:33:59.697Z,52.64
2018-08-24T17:36:28.359Z,52.83
2018-08-24T17:38:56.983Z,52.79
2018-08-24T17:41:25.636Z,53.65
2018-08-24T17:43:54.287Z,53.86
2018-08-24T17:46:22.940Z,54.18
2018-08-24T17:48:51.567Z,54.59
2018-08-24T17:51:20.238Z,55.51
2018-08-24T17:53:48.871Z,54.79
2018-08-24T17:56:17.522Z,55.70
2018-08-24T17:58:46.155Z,56.30
2018-08-24T18:01:14.810Z,56.45
2018-08-24T18:03:43.460Z,56.03
2018-08-24T18:06:12.082Z,56.47
2018-08-24T18:08:40.770Z,56.64
2018-08-24T18:11:09.387Z,56.56
2018-08-24T18:13:38.032Z,57.06
2018-08-24T18:16:06.666Z,57.27
2018-08-24T18:18:35.327Z,57.51
2018-08-24T18:21:04.006Z,58.08
2018-08-24T18:23:32.650Z,58.53
2018-08-24T18:26:01.271Z,58.60
2018-08-24T18:28:29.915Z,59.68
2018-08-24T18:30:58.547Z,59.05
2018-08-24T18:33:27.192Z,59.44
2018-08-24T18:35:55.839Z,59.55
2018-08-24T18:38:24.588Z,59.84
2018-08-24T18:40:53.243Z,59.77
2018-08-24T18:43:21.906Z,60.72
2018-08-24T18:45:50.560Z,60.61
2018-08-24T18:48:19.215Z,60.77
2018-08-24T18:50:47.924Z,61.49
2018-08-24T18:53:16.547Z,61.86
2018-08-24T18:55:45.172Z,62.75
2018-08-24T18:58:13.831Z,61.70
2018-08-24T19:00:42.460Z,61.44
2018-08-24T19:03:11.118Z,61.66
2018-08-24T19:05:39.746Z,61.96
2018-08-24T19:08:12.816Z,62.17
2018-08-24T19:10:46.770Z,62.90
2018-08-24T19:13:16.673Z,63.33
2018-08-24T19:15:46.471Z,63.65
2018-08-24T19:18:20.452Z,63.97
2018-08-24T19:20:54.350Z,64.24
2018-08-24T19:23:23.015Z,64.05
2018-08-24T19:25:51.675Z,64.05
2018-08-24T19:28:25.491Z,64.05
2018-08-24T19:30:54.124Z,63.69
2018-08-24T19:33:22.789Z,63.39
2018-08-24T19:35:51.430Z,63.30
2018-08-24T19:38:20.067Z,63.09
2018-08-24T19:40:53.868Z,62.60
2018-08-24T19:43:22.522Z,62.71
2018-08-24T19:45:51.145Z,62.77
2018-08-24T19:48:25.130Z,62.53
2018-08-24T19:50:53.735Z,62.34
2018-08-24T19:53:22.385Z,62.11
2018-08-24T19:55:51.017Z,61.78
2018-08-24T19:58:24.955Z,61.30
2018-08-24T20:00:53.601Z,61.26
2018-08-24T20:03:22.273Z,60.81
2018-08-24T20:05:56.168Z,60.71
2018-08-24T20:08:29.934Z,60.52
2018-08-24T20:10:58.544Z,60.68
2018-08-24T20:13:27.252Z,60.63
2018-08-24T20:16:01.016Z,61.01
2018-08-24T20:18:29.679Z,61.11
2018-08-24T20:20:58.367Z,61.29
2018-08-24T20:23:27.048Z,61.20
2018-08-24T20:25:55.723Z,61.48
2018-08-24T20:28:24.371Z,61.66
2018-08-24T20:30:53.034Z,61.68
2018-08-24T20:33:21.852Z,61.87
2018-08-24T20:35:50.507Z,62.39
2018-08-24T20:38:19.139Z,62.37
2018-08-24T20:40:47.783Z,63.35
2018-08-24T20:43:16.423Z,63.42
2018-08-24T20:45:45.084Z,63.87
2018-08-24T20:48:13.729Z,63.93
2018-08-24T20:50:42.460Z,64.44
2018-08-24T20:53:11.112Z,64.56
2018-08-24T20:55:39.833Z,64.56
2018-08-24T20:58:08.472Z,64.65
2018-08-24T21:00:37.139Z,64.54
2018-08-24T21:03:05.934Z,64.64
2018-08-24T21:05:34.625Z,64.60
2018-08-24T21:08:03.250Z,64.82
2018-08-24T21:10:31.906Z,64.81
2018-08-24T21:13:00.542Z,64.75
2018-08-24T21:15:29.190Z,65.04
2018-08-24T21:17:57.872Z,65.61
2018-08-24T21:20:26.566Z,65.43
2018-08-24T21:22:55.225Z,65.49
2018-08-24T21:25:23.888Z,65.68
2018-08-24T21:27:52.761Z,65.67
2018-08-24T21:30:21.566Z,65.52
2018-08-24T21:32:50.177Z,65.88
2018-08-24T21:35:18.855Z,66.21
2018-08-24T21:37:47.490Z,66.65
2018-08-24T21:40:16.155Z,67.08
2018-08-24T21:42:44.788Z,67.22
2018-08-24T21:45:13.449Z,67.54
2018-08-24T21:47:42.091Z,67.91
2018-08-24T21:50:10.757Z,68.31
2018-08-24T21:52:39.408Z,68.72
2018-08-24T21:55:08.099Z,69.22
2018-08-24T21:57:36.830Z,69.65
2018-08-24T22:00:08.536Z,70.09
2018-08-24T22:02:37.178Z,70.10
2018-08-24T22:05:05.903Z,70.81
2018-08-24T22:07:34.536Z,71.62
2018-08-24T22:10:03.190Z,72.11
2018-08-24T22:12:31.849Z,72.64
2018-08-24T22:15:00.554Z,72.74
2018-08-24T22:17:29.191Z,72.67
2018-08-24T22:19:57.827Z,72.86
2018-08-24T22:22:26.513Z,72.83
2018-08-24T22:24:55.228Z,73.72
2018-08-24T22:27:23.944Z,73.24
2018-08-24T22:29:52.584Z,73.06
2018-08-24T22:32:21.288Z,73.48
2018-08-24T22:34:49.924Z,73.77
2018-08-24T22:37:18.591Z,74.57
2018-08-24T22:39:47.277Z,75.32
2018-08-24T22:42:15.982Z,75.59
2018-08-24T22:44:44.625Z,76.06
2018-08-24T22:47:13.310Z,75.96
2018-08-24T22:49:41.939Z,75.96
2018-08-24T22:52:10.591Z,76.64
2018-08-24T22:54:39.224Z,76.16
2018-08-24T22:57:07.950Z,76.90
2018-08-24T22:59:36.653Z,76.86
2018-08-24T23:02:05.329Z,77.03
2018-08-24T23:04:33.973Z,76.91
2018-08-24T23:07:02.637Z,77.17
2018-08-24T23:09:31.284Z,77.33
2018-08-24T23:11:59.950Z,77.73
2018-08-24T23:14:28.588Z,76.90
2018-08-24T23:16:57.273Z,78.40
2018-08-24T23:19:25.975Z,79.09
2018-08-24T23:21:54.628Z,78.90
2018-08-24T23:24:23.242Z,79.40
2018-08-24T23:26:51.880Z,80.16
2018-08-24T23:29:20.503Z,81.50
2018-08-24T23:31:49.155Z,82.27
2018-08-24T23:34:17.795Z,82.43
2018-08-24T23:36:46.424Z,82.33
2018-08-24T23:39:15.070Z,82.50
2018-08-24T23:41:43.738Z,82.27
2018-08-24T23:44:12.433Z,82.12
2018-08-24T23:46:41.099Z,81.78
2018-08-24T23:49:09.735Z,81.61
2018-08-24T23:51:38.362Z,80.93
2018-08-24T23:54:07.044Z,80.33
2018-08-24T23:56:35.677Z,81.53
2018-08-24T23:59:04.342Z,82.67
